Flugplatz Hohn Airport

Bericht für ETNH

vom 20.10. um 04:20 UTC

Wind 10 kt aus 210° in Böen 21 kt

Sichtweite 10 km oder mehr

gering bewölkt in 1600 ft

aufgebrochene Bewölkung in 2600 ft

Temperatur 16.0°C

Taupunkt 13.0°C

Luftfeuchtigkeit 82%

Luftdruck 1002 hPa

ETNH 200420Z 21010G21KT 9999 FEW016 BKN026 16/13 Q1002 BLU BLU TEMPO GRN

Prognose für ETNH

vom 19.10. um 22:05 UTC

Am 19.10. zwischen 23:00 UTC und 11:00 UTC

Wind 12 kt aus 220° in Böen 22 kt

Sichtweite 8000 m

keine signifikanten Wettererscheinungen

gering bewölkt in 800 ft

aufgebrochene Bewölkung in 3000 ft


Am 19.10. zwischen 23:00 UTC und 11:00 UTC zeitweise

Wind 15 kt aus 230° in Böen 28 kt

Sichtweite 4000 m

schwacher Regen

schwacher Sprühregen

aufgelockert bewölkt in 500 ft

aufgebrochene Bewölkung in 1000 ft

TAF ETNH 192205Z 1923/2011 22012G22KT 8000 NSW FEW008 BKN030 TEMPO 1923/2011 23015G28KT 4000 -RADZ SCT005 BKN010 BY ETGL
Impressum